createdAt,value
2017-10-19T00:00:31.885Z,1007.8
2017-10-19T00:01:34.314Z,1007.8
2017-10-19T00:02:36.741Z,1007.8
2017-10-19T00:03:39.167Z,1007.8
2017-10-19T00:04:41.603Z,1007.8
2017-10-19T00:05:44.039Z,1007.8
2017-10-19T00:06:46.455Z,1007.8
2017-10-19T00:07:49.255Z,1007.8
2017-10-19T00:08:51.688Z,1007.8
2017-10-19T00:09:54.115Z,1007.8
2017-10-19T00:10:56.553Z,1007.8
2017-10-19T00:11:58.980Z,1007.8
2017-10-19T00:13:01.403Z,1007.8
2017-10-19T00:14:03.846Z,1007.8
2017-10-19T00:15:06.627Z,1007.8
2017-10-19T00:16:09.063Z,1007.8
2017-10-19T00:17:11.493Z,1007.8
2017-10-19T00:18:14.279Z,1007.8
2017-10-19T00:19:16.710Z,1007.9
2017-10-19T00:20:19.132Z,1007.8
2017-10-19T00:21:21.571Z,1007.8
2017-10-19T00:22:24.352Z,1007.9
2017-10-19T00:23:26.777Z,1007.9
2017-10-19T00:24:29.213Z,1007.9
2017-10-19T00:25:31.640Z,1007.8
2017-10-19T00:26:34.064Z,1007.9
2017-10-19T00:27:36.512Z,1007.9
2017-10-19T00:28:39.286Z,1007.9
2017-10-19T00:29:41.725Z,1007.9
2017-10-19T00:30:44.160Z,1007.9
2017-10-19T00:31:46.588Z,1007.8
2017-10-19T00:32:49.011Z,1007.8
2017-10-19T00:33:51.446Z,1007.9
2017-10-19T00:34:53.883Z,1007.8
2017-10-19T00:35:56.317Z,1007.9
2017-10-19T00:36:58.742Z,1007.8
2017-10-19T00:38:01.165Z,1007.8
2017-10-19T00:39:03.595Z,1007.9
2017-10-19T00:40:06.025Z,1007.9
2017-10-19T00:41:08.442Z,1007.9
2017-10-19T00:42:10.879Z,1007.9
2017-10-19T00:43:13.311Z,1007.8
2017-10-19T00:44:15.741Z,1007.8
2017-10-19T00:45:18.551Z,1007.8
2017-10-19T00:46:20.991Z,1007.8
2017-10-19T00:47:23.418Z,1007.8
2017-10-19T00:48:25.882Z,1007.8
2017-10-19T00:49:28.279Z,1007.8
2017-10-19T00:50:31.076Z,1007.8
2017-10-19T00:51:33.504Z,1007.8
2017-10-19T00:52:35.942Z,1007.8
2017-10-19T00:53:38.379Z,1007.8
2017-10-19T00:54:40.805Z,1007.8
2017-10-19T00:55:43.241Z,1007.8
2017-10-19T00:56:45.675Z,1007.8
2017-10-19T00:57:48.100Z,1007.8
2017-10-19T00:58:50.542Z,1007.8
2017-10-19T00:59:52.971Z,1007.8
2017-10-19T01:00:55.391Z,1007.8
2017-10-19T01:01:57.828Z,1007.8
2017-10-19T01:03:00.262Z,1007.8
2017-10-19T01:04:03.045Z,1007.8
2017-10-19T01:05:05.490Z,1007.8
2017-10-19T01:06:07.903Z,1007.8
2017-10-19T01:07:10.702Z,1007.8
2017-10-19T01:08:13.133Z,1007.8
2017-10-19T01:09:15.577Z,1007.8
2017-10-19T01:10:17.992Z,1007.8
2017-10-19T01:11:20.426Z,1007.8
2017-10-19T01:12:22.863Z,1007.7
2017-10-19T01:13:25.307Z,1007.7
2017-10-19T01:14:28.091Z,1007.7
2017-10-19T01:15:30.518Z,1007.7
2017-10-19T01:16:33.338Z,1007.8
2017-10-19T01:17:35.771Z,1007.7
2017-10-19T01:18:38.201Z,1007.8
2017-10-19T01:19:40.992Z,1007.8
2017-10-19T01:20:43.435Z,1007.7
2017-10-19T01:21:45.872Z,1007.7
2017-10-19T01:22:48.301Z,1007.7
2017-10-19T01:23:50.734Z,1007.7
2017-10-19T01:24:53.181Z,1007.7
2017-10-19T01:25:55.602Z,1007.6
2017-10-19T01:26:58.037Z,1007.7
2017-10-19T01:28:00.474Z,1007.7
2017-10-19T01:29:02.898Z,1007.6
2017-10-19T01:30:05.331Z,1007.6
2017-10-19T01:31:07.777Z,1007.6
2017-10-19T01:32:10.189Z,1007.6
2017-10-19T01:33:12.628Z,1007.6
2017-10-19T01:34:15.053Z,1007.6
2017-10-19T01:35:17.485Z,1007.6
2017-10-19T01:36:19.917Z,1007.6
2017-10-19T01:37:22.341Z,1007.6
2017-10-19T01:38:24.768Z,1007.6
2017-10-19T01:39:27.214Z,1007.6
2017-10-19T01:40:29.641Z,1007.6
2017-10-19T01:41:32.441Z,1007.6
2017-10-19T01:42:34.873Z,1007.6
2017-10-19T01:43:37.297Z,1007.6
2017-10-19T01:44:39.726Z,1007.6
2017-10-19T01:45:42.158Z,1007.6
2017-10-19T01:46:44.580Z,1007.6
2017-10-19T01:47:47.051Z,1007.6
2017-10-19T01:48:49.826Z,1007.6
2017-10-19T01:49:52.267Z,1007.7
2017-10-19T01:50:54.690Z,1007.6
2017-10-19T01:51:57.126Z,1007.6
2017-10-19T01:52:59.565Z,1007.6
2017-10-19T01:54:01.983Z,1007.6
2017-10-19T01:55:04.421Z,1007.5
2017-10-19T01:56:07.198Z,1007.6
2017-10-19T01:57:09.623Z,1007.5
2017-10-19T01:58:12.068Z,1007.5
2017-10-19T01:59:14.491Z,1007.5
2017-10-19T02:00:17.284Z,1007.5
2017-10-19T02:01:19.721Z,1007.5
2017-10-19T02:02:22.175Z,1007.5
2017-10-19T02:03:24.596Z,1007.5
2017-10-19T02:04:27.034Z,1007.6
2017-10-19T02:05:29.447Z,1007.5
2017-10-19T02:06:31.882Z,1007.6
2017-10-19T02:07:34.323Z,1007.5
2017-10-19T02:08:36.752Z,1007.6
2017-10-19T02:09:39.189Z,1007.6
2017-10-19T02:10:41.614Z,1007.5
2017-10-19T02:11:44.040Z,1007.6
2017-10-19T02:12:46.476Z,1007.6
2017-10-19T02:13:48.905Z,1007.6
2017-10-19T02:14:51.328Z,1007.6
2017-10-19T02:15:54.131Z,1007.6
2017-10-19T02:16:56.569Z,1007.6
2017-10-19T02:17:59.000Z,1007.6
2017-10-19T02:19:01.435Z,1007.6
2017-10-19T02:20:03.866Z,1007.6
2017-10-19T02:21:06.306Z,1007.6
2017-10-19T02:22:08.733Z,1007.6
2017-10-19T02:23:11.521Z,1007.7
2017-10-19T02:24:13.954Z,1007.7
2017-10-19T02:25:16.386Z,1007.7
2017-10-19T02:26:18.813Z,1007.6
2017-10-19T02:27:21.247Z,1007.6
2017-10-19T02:28:24.025Z,1007.7
2017-10-19T02:29:26.475Z,1007.6
2017-10-19T02:30:29.253Z,1007.7
2017-10-19T02:31:31.684Z,1007.7
2017-10-19T02:32:34.120Z,1007.6
2017-10-19T02:33:36.558Z,1007.7
2017-10-19T02:34:38.988Z,1007.6
2017-10-19T02:35:41.424Z,1007.6
2017-10-19T02:36:43.872Z,1007.7
2017-10-19T02:37:46.295Z,1007.7
2017-10-19T02:38:48.733Z,1007.6
2017-10-19T02:39:51.142Z,1007.6
2017-10-19T02:40:53.577Z,1007.6
2017-10-19T02:41:56.012Z,1007.6
2017-10-19T02:42:58.435Z,1007.6
2017-10-19T02:44:00.872Z,1007.6
2017-10-19T02:45:03.309Z,1007.5
2017-10-19T02:46:05.736Z,1007.6
2017-10-19T02:47:08.173Z,1007.6
2017-10-19T02:48:10.611Z,1007.6
2017-10-19T02:49:13.043Z,1007.6
2017-10-19T02:50:15.476Z,1007.6
2017-10-19T02:51:17.909Z,1007.6
2017-10-19T02:52:20.335Z,1007.6
2017-10-19T02:53:22.752Z,1007.6
2017-10-19T02:54:25.196Z,1007.6
2017-10-19T02:55:27.968Z,1007.6
2017-10-19T02:56:30.405Z,1007.6
2017-10-19T02:57:32.830Z,1007.6
2017-10-19T02:58:35.261Z,1007.6
2017-10-19T02:59:37.695Z,1007.6
2017-10-19T03:00:40.133Z,1007.6
2017-10-19T03:01:42.558Z,1007.7
2017-10-19T03:02:45.001Z,1007.7
2017-10-19T03:03:47.823Z,1007.7
2017-10-19T03:04:50.241Z,1007.7
2017-10-19T03:05:52.680Z,1007.7
2017-10-19T03:06:55.102Z,1007.7
2017-10-19T03:07:57.534Z,1007.8
2017-10-19T03:08:59.968Z,1007.7
2017-10-19T03:10:02.393Z,1007.8
2017-10-19T03:11:04.826Z,1007.7
2017-10-19T03:12:07.269Z,1007.7
2017-10-19T03:13:09.698Z,1007.7
2017-10-19T03:14:12.138Z,1007.7
2017-10-19T03:15:14.562Z,1007.7
2017-10-19T03:16:17.352Z,1007.7
2017-10-19T03:17:19.769Z,1007.7
2017-10-19T03:18:22.203Z,1007.7
2017-10-19T03:19:24.646Z,1007.7
2017-10-19T03:20:27.071Z,1007.6
2017-10-19T03:21:29.494Z,1007.6
2017-10-19T03:22:31.926Z,1007.7
2017-10-19T03:23:34.719Z,1007.7
2017-10-19T03:24:37.154Z,1007.7
2017-10-19T03:25:39.590Z,1007.7
2017-10-19T03:26:42.006Z,1007.7
2017-10-19T03:27:44.435Z,1007.7
2017-10-19T03:28:46.886Z,1007.7
2017-10-19T03:29:49.314Z,1007.7
2017-10-19T03:30:51.743Z,1007.7
2017-10-19T03:31:54.171Z,1007.7
2017-10-19T03:32:56.611Z,1007.7
2017-10-19T03:33:59.046Z,1007.8
2017-10-19T03:35:01.479Z,1007.7
2017-10-19T03:36:03.905Z,1007.7
2017-10-19T03:37:06.339Z,1007.8
2017-10-19T03:38:08.766Z,1007.8
2017-10-19T03:39:11.200Z,1007.8
2017-10-19T03:40:14.014Z,1007.8
2017-10-19T03:41:16.794Z,1007.8
2017-10-19T03:42:19.236Z,1007.8
2017-10-19T03:43:22.027Z,1007.8
2017-10-19T03:44:24.454Z,1007.8
2017-10-19T03:45:26.890Z,1007.8
2017-10-19T03:46:29.319Z,1007.8
2017-10-19T03:47:31.757Z,1007.8
2017-10-19T03:48:34.540Z,1007.8
2017-10-19T03:49:36.972Z,1007.8
2017-10-19T03:50:39.398Z,1007.8
2017-10-19T03:51:41.826Z,1007.8
2017-10-19T03:52:44.276Z,1007.7
2017-10-19T03:53:46.698Z,1007.7
2017-10-19T03:54:49.134Z,1007.8
2017-10-19T03:55:51.560Z,1007.7
2017-10-19T03:56:53.986Z,1007.8
2017-10-19T03:57:56.421Z,1007.7
2017-10-19T03:58:58.853Z,1007.8
2017-10-19T04:00:01.276Z,1007.8
2017-10-19T04:01:03.713Z,1007.8
2017-10-19T04:02:06.131Z,1007.8
2017-10-19T04:03:08.566Z,1007.8
2017-10-19T04:04:11.361Z,1007.8
2017-10-19T04:05:13.790Z,1007.7
2017-10-19T04:06:16.226Z,1007.8
2017-10-19T04:07:18.663Z,1007.8
2017-10-19T04:08:21.104Z,1007.8
2017-10-19T04:09:23.542Z,1007.7
2017-10-19T04:10:25.976Z,1007.7
2017-10-19T04:11:28.410Z,1007.7
2017-10-19T04:12:30.837Z,1007.7
2017-10-19T04:13:33.270Z,1007.7
2017-10-19T04:14:35.705Z,1007.6
2017-10-19T04:15:38.133Z,1007.6
2017-10-19T04:16:40.568Z,1007.7
2017-10-19T04:17:43.357Z,1007.7
2017-10-19T04:18:46.154Z,1007.7
2017-10-19T04:19:48.592Z,1007.7
2017-10-19T04:20:51.021Z,1007.7
2017-10-19T04:21:53.455Z,1007.7
2017-10-19T04:22:55.889Z,1007.7
2017-10-19T04:23:58.314Z,1007.7
2017-10-19T04:25:00.744Z,1007.7
2017-10-19T04:26:03.189Z,1007.7
2017-10-19T04:27:05.616Z,1007.7
2017-10-19T04:28:08.044Z,1007.7
2017-10-19T04:29:10.476Z,1007.7
2017-10-19T04:30:12.910Z,1007.6
2017-10-19T04:31:15.344Z,1007.7
2017-10-19T04:32:17.771Z,1007.7
2017-10-19T04:33:20.550Z,1007.7
2017-10-19T04:34:22.980Z,1007.7
2017-10-19T04:35:25.425Z,1007.6
2017-10-19T04:36:27.866Z,1007.6
2017-10-19T04:37:30.290Z,1007.6
2017-10-19T04:38:32.722Z,1007.6
2017-10-19T04:39:35.158Z,1007.6
2017-10-19T04:40:37.600Z,1007.6
2017-10-19T04:41:40.032Z,1007.6
2017-10-19T04:42:42.453Z,1007.6
2017-10-19T04:43:44.879Z,1007.6
2017-10-19T04:44:47.329Z,1007.6
2017-10-19T04:45:49.777Z,1007.6
2017-10-19T04:46:52.186Z,1007.7
2017-10-19T04:47:54.623Z,1007.6
2017-10-19T04:48:57.062Z,1007.6
2017-10-19T04:49:59.488Z,1007.6
2017-10-19T04:51:01.927Z,1007.6
2017-10-19T04:52:04.365Z,1007.7
2017-10-19T04:53:06.791Z,1007.7
2017-10-19T04:54:09.221Z,1007.6
2017-10-19T04:55:11.649Z,1007.6
2017-10-19T04:56:14.075Z,1007.6
2017-10-19T04:57:16.513Z,1007.6
2017-10-19T04:58:18.935Z,1007.6
2017-10-19T04:59:21.370Z,1007.5
2017-10-19T05:00:24.161Z,1007.6
2017-10-19T05:01:26.585Z,1007.6
2017-10-19T05:02:29.022Z,1007.6
2017-10-19T05:03:31.459Z,1007.6
2017-10-19T05:04:33.894Z,1007.6
2017-10-19T05:05:36.324Z,1007.6
2017-10-19T05:06:38.755Z,1007.7
2017-10-19T05:07:41.180Z,1007.7
2017-10-19T05:08:43.629Z,1007.7
2017-10-19T05:09:46.062Z,1007.7
2017-10-19T05:10:48.485Z,1007.8
2017-10-19T05:11:50.922Z,1007.7
2017-10-19T05:12:53.356Z,1007.7
2017-10-19T05:13:55.796Z,1007.7
2017-10-19T05:14:58.589Z,1007.7
2017-10-19T05:16:01.043Z,1007.6
2017-10-19T05:17:03.474Z,1007.6
2017-10-19T05:18:05.905Z,1007.6
2017-10-19T05:19:08.693Z,1007.6
2017-10-19T05:20:11.119Z,1007.5
2017-10-19T05:21:13.545Z,1007.5
2017-10-19T05:22:15.985Z,1007.5
2017-10-19T05:23:18.408Z,1007.5
2017-10-19T05:24:21.195Z,1007.5
2017-10-19T05:25:23.632Z,1007.5
2017-10-19T05:26:26.096Z,1007.5
2017-10-19T05:27:29.576Z,1007.5
2017-10-19T05:28:33.877Z,1007.5
2017-10-19T05:29:36.996Z,1007.5
2017-10-19T05:30:40.089Z,1007.5
2017-10-19T05:31:44.353Z,1007.6
2017-10-19T05:32:48.464Z,1007.5
2017-10-19T05:33:56.131Z,1007.6
2017-10-19T05:34:58.562Z,1007.6
2017-10-19T05:36:00.995Z,1007.6
2017-10-19T05:37:03.417Z,1007.6
2017-10-19T05:38:05.842Z,1007.6
2017-10-19T05:39:08.274Z,1007.6
2017-10-19T05:40:10.711Z,1007.6
2017-10-19T05:41:13.141Z,1007.5
2017-10-19T05:42:15.564Z,1007.5
2017-10-19T05:43:17.990Z,1007.5
2017-10-19T05:44:20.788Z,1007.5
2017-10-19T05:45:23.214Z,1007.5
2017-10-19T05:46:25.999Z,1007.5
2017-10-19T05:47:28.436Z,1007.5
2017-10-19T05:48:30.874Z,1007.5
2017-10-19T05:49:33.294Z,1007.6
2017-10-19T05:50:36.094Z,1007.5
2017-10-19T05:51:38.884Z,1007.5
2017-10-19T05:52:41.321Z,1007.5
2017-10-19T05:53:43.744Z,1007.5
2017-10-19T05:54:46.171Z,1007.5
2017-10-19T05:55:48.594Z,1007.6
2017-10-19T05:56:51.041Z,1007.6
2017-10-19T05:57:53.467Z,1007.7
2017-10-19T05:58:55.888Z,1007.7
2017-10-19T05:59:58.318Z,1007.7
2017-10-19T06:01:00.738Z,1007.7
2017-10-19T06:02:03.176Z,1007.7
2017-10-19T06:03:05.603Z,1007.7
2017-10-19T06:04:08.034Z,1007.7
2017-10-19T06:05:10.466Z,1007.7
2017-10-19T06:06:12.907Z,1007.7
2017-10-19T06:07:15.339Z,1007.7
2017-10-19T06:08:17.780Z,1007.7
2017-10-19T06:09:20.206Z,1007.7
2017-10-19T06:10:22.634Z,1007.7
2017-10-19T06:11:25.070Z,1007.7
2017-10-19T06:12:27.544Z,1007.8
2017-10-19T06:13:30.582Z,1007.8
2017-10-19T06:14:33.368Z,1007.8
2017-10-19T06:15:38.107Z,1007.8
2017-10-19T06:16:41.292Z,1007.8
2017-10-19T06:17:44.702Z,1007.8
2017-10-19T06:18:48.229Z,1007.8
2017-10-19T06:19:50.983Z,1007.9
2017-10-19T06:20:54.348Z,1007.8
2017-10-19T06:21:57.874Z,1007.8
2017-10-19T06:23:01.407Z,1007.8
2017-10-19T06:24:04.851Z,1007.9
2017-10-19T06:25:08.239Z,1007.9
2017-10-19T06:26:11.457Z,1007.9
2017-10-19T06:27:14.727Z,1007.9
2017-10-19T06:28:17.634Z,1007.9
2017-10-19T06:29:21.245Z,1007.9
2017-10-19T06:30:24.645Z,1007.9
2017-10-19T06:31:28.131Z,1007.9
2017-10-19T06:32:30.976Z,1007.9
2017-10-19T06:33:34.508Z,1007.9
2017-10-19T06:34:37.436Z,1007.9
2017-10-19T06:35:40.842Z,1007.9
2017-10-19T06:36:44.062Z,1007.9
2017-10-19T06:37:46.620Z,1007.9
2017-10-19T06:38:50.653Z,1007.9
2017-10-19T06:39:53.597Z,1008
2017-10-19T06:40:57.296Z,1008
2017-10-19T06:42:00.844Z,1007.9
2017-10-19T06:43:04.279Z,1008
2017-10-19T06:44:07.226Z,1007.9
2017-10-19T06:45:09.654Z,1008
2017-10-19T06:46:12.083Z,1007.9
2017-10-19T06:47:14.521Z,1008
2017-10-19T06:48:16.957Z,1008
2017-10-19T06:49:19.385Z,1008
2017-10-19T06:50:21.816Z,1007.9
2017-10-19T06:51:24.249Z,1008
2017-10-19T06:52:26.680Z,1008
2017-10-19T06:53:29.110Z,1008
2017-10-19T06:54:31.535Z,1008
2017-10-19T06:55:33.966Z,1008
2017-10-19T06:56:36.415Z,1008
2017-10-19T06:57:38.846Z,1008
2017-10-19T06:58:41.424Z,1008
2017-10-19T06:59:45.704Z,1008.1
2017-10-19T07:00:51.073Z,1008
2017-10-19T07:01:54.739Z,1008
2017-10-19T07:03:00.976Z,1008
2017-10-19T07:04:03.406Z,1008
2017-10-19T07:05:05.836Z,1008.1
2017-10-19T07:06:08.270Z,1008
2017-10-19T07:07:10.688Z,1008
2017-10-19T07:08:13.126Z,1008
2017-10-19T07:09:16.275Z,1008
2017-10-19T07:10:18.708Z,1008
2017-10-19T07:11:21.497Z,1008
2017-10-19T07:12:23.932Z,1008
2017-10-19T07:13:26.728Z,1007.9
2017-10-19T07:14:29.160Z,1007.9
2017-10-19T07:15:31.593Z,1007.9
2017-10-19T07:16:34.027Z,1007.9
2017-10-19T07:17:36.807Z,1007.9
2017-10-19T07:18:39.241Z,1007.9
2017-10-19T07:19:42.046Z,1007.9
2017-10-19T07:20:44.474Z,1008
2017-10-19T07:21:46.919Z,1008
2017-10-19T07:22:49.691Z,1008
2017-10-19T07:23:52.137Z,1008
2017-10-19T07:24:54.552Z,1008
2017-10-19T07:25:56.984Z,1008
2017-10-19T07:26:59.420Z,1008
2017-10-19T07:28:01.851Z,1008
2017-10-19T07:29:04.276Z,1008
2017-10-19T07:30:06.719Z,1008
2017-10-19T07:31:09.156Z,1008
2017-10-19T07:32:11.576Z,1008
2017-10-19T07:33:14.017Z,1008
2017-10-19T07:34:16.444Z,1008
2017-10-19T07:35:18.878Z,1008
2017-10-19T07:36:21.317Z,1008
2017-10-19T07:37:23.742Z,1008
2017-10-19T07:38:26.175Z,1008
2017-10-19T07:39:28.616Z,1007.9
2017-10-19T07:40:31.050Z,1007.9
2017-10-19T07:41:33.483Z,1007.9
2017-10-19T07:42:35.914Z,1007.9
2017-10-19T07:43:38.352Z,1007.9
2017-10-19T07:44:40.781Z,1007.8
2017-10-19T07:45:43.227Z,1007.9
2017-10-19T07:46:45.642Z,1007.8
2017-10-19T07:47:48.073Z,1007.8
2017-10-19T07:48:50.513Z,1007.8
2017-10-19T07:49:53.299Z,1007.8
2017-10-19T07:50:55.737Z,1007.8
2017-10-19T07:51:58.170Z,1007.8
2017-10-19T07:53:00.606Z,1007.8
2017-10-19T07:54:03.053Z,1007.8
2017-10-19T07:55:05.495Z,1007.8
2017-10-19T07:56:07.923Z,1007.8
2017-10-19T07:57:10.718Z,1007.8
2017-10-19T07:58:13.166Z,1007.8
2017-10-19T07:59:15.951Z,1007.8
2017-10-19T08:00:18.389Z,1007.8
2017-10-19T08:01:20.819Z,1007.8
2017-10-19T08:02:23.253Z,1007.7
2017-10-19T08:03:25.697Z,1007.7
2017-10-19T08:04:28.182Z,1007.7
2017-10-19T08:05:30.610Z,1007.7
2017-10-19T08:06:33.054Z,1007.8
2017-10-19T08:07:35.491Z,1007.7
2017-10-19T08:08:37.927Z,1007.8
2017-10-19T08:09:40.356Z,1007.8
2017-10-19T08:10:42.790Z,1007.8
2017-10-19T08:11:45.226Z,1007.8
2017-10-19T08:12:48.028Z,1007.8
2017-10-19T08:13:50.451Z,1007.8
2017-10-19T08:14:52.879Z,1007.8
2017-10-19T08:15:55.664Z,1007.8
2017-10-19T08:16:58.102Z,1007.8
2017-10-19T08:18:00.535Z,1007.8
2017-10-19T08:19:02.966Z,1007.8
2017-10-19T08:20:05.424Z,1007.8
2017-10-19T08:21:07.851Z,1007.8
2017-10-19T08:22:10.297Z,1007.8
2017-10-19T08:23:12.733Z,1007.8
2017-10-19T08:24:15.159Z,1007.8
2017-10-19T08:25:17.591Z,1007.8
2017-10-19T08:26:20.027Z,1007.8
2017-10-19T08:27:22.449Z,1007.8
2017-10-19T08:28:24.890Z,1007.8
2017-10-19T08:29:27.686Z,1007.8
2017-10-19T08:30:30.121Z,1007.8
2017-10-19T08:31:32.563Z,1007.9
2017-10-19T08:32:34.991Z,1007.8
2017-10-19T08:33:37.426Z,1007.8
2017-10-19T08:34:39.868Z,1007.8
2017-10-19T08:35:42.303Z,1007.8
2017-10-19T08:36:44.749Z,1007.8
2017-10-19T08:37:47.186Z,1007.8
2017-10-19T08:38:49.621Z,1007.8
2017-10-19T08:39:52.053Z,1007.8
2017-10-19T08:40:54.490Z,1007.7
2017-10-19T08:41:56.928Z,1007.7
2017-10-19T08:42:59.358Z,1007.7
2017-10-19T08:44:01.813Z,1007.8
2017-10-19T08:45:04.251Z,1007.8
2017-10-19T08:46:06.678Z,1007.8
2017-10-19T08:47:09.120Z,1007.7
2017-10-19T08:48:11.558Z,1007.7
2017-10-19T08:49:13.996Z,1007.8
2017-10-19T08:50:16.439Z,1007.8
2017-10-19T08:51:18.865Z,1007.7
2017-10-19T08:52:21.299Z,1007.7
2017-10-19T08:53:24.109Z,1007.8
2017-10-19T08:54:26.924Z,1007.8
2017-10-19T08:55:29.334Z,1007.7
2017-10-19T08:56:31.775Z,1007.8
2017-10-19T08:57:34.213Z,1007.8
2017-10-19T08:58:36.660Z,1007.8
2017-10-19T08:59:39.449Z,1007.8
2017-10-19T09:00:41.880Z,1007.7
2017-10-19T09:01:44.332Z,1007.8
2017-10-19T09:02:46.762Z,1007.8
2017-10-19T09:03:49.214Z,1007.8
2017-10-19T09:04:51.654Z,1007.8
2017-10-19T09:05:54.101Z,1007.8
2017-10-19T09:06:56.550Z,1007.8
2017-10-19T09:07:58.996Z,1007.8
2017-10-19T09:09:01.798Z,1007.8
2017-10-19T09:10:04.259Z,1007.8
2017-10-19T09:11:06.692Z,1007.7
2017-10-19T09:12:09.142Z,1007.7
2017-10-19T09:13:11.580Z,1007.6
2017-10-19T09:14:14.026Z,1007.7
2017-10-19T09:15:16.473Z,1007.7
2017-10-19T09:16:18.916Z,1007.7
2017-10-19T09:17:21.494Z,1007.7
2017-10-19T09:18:23.944Z,1007.7
2017-10-19T09:19:26.391Z,1007.7
2017-10-19T09:20:28.825Z,1007.8
2017-10-19T09:21:31.264Z,1007.8
2017-10-19T09:22:33.703Z,1007.8
2017-10-19T09:23:36.141Z,1007.8
2017-10-19T09:24:38.600Z,1007.8
2017-10-19T09:25:41.035Z,1007.7
2017-10-19T09:26:43.483Z,1007.8
2017-10-19T09:27:45.930Z,1007.8
2017-10-19T09:28:48.384Z,1007.8
2017-10-19T09:29:50.810Z,1007.7
2017-10-19T09:30:53.257Z,1007.8
2017-10-19T09:31:56.049Z,1007.7
2017-10-19T09:32:58.496Z,1007.8
2017-10-19T09:34:00.935Z,1007.8
2017-10-19T09:35:03.373Z,1007.8
2017-10-19T09:36:05.830Z,1007.8
2017-10-19T09:37:08.270Z,1007.8
2017-10-19T09:38:10.702Z,1007.8
2017-10-19T09:39:13.509Z,1007.8
2017-10-19T09:40:15.942Z,1007.8
2017-10-19T09:41:18.391Z,1007.8
2017-10-19T09:42:20.831Z,1007.8
2017-10-19T09:43:23.280Z,1007.8
2017-10-19T09:44:25.730Z,1007.8
2017-10-19T09:45:28.156Z,1007.8
2017-10-19T09:46:30.604Z,1007.8
2017-10-19T09:47:33.037Z,1007.8
2017-10-19T09:48:35.478Z,1007.7
2017-10-19T09:49:37.926Z,1007.8
2017-10-19T09:50:40.357Z,1007.7
2017-10-19T09:51:42.798Z,1007.8
2017-10-19T09:52:45.249Z,1007.8
2017-10-19T09:53:47.695Z,1007.7
2017-10-19T09:54:50.482Z,1007.7
2017-10-19T09:55:52.923Z,1007.7
2017-10-19T09:56:55.357Z,1007.7
2017-10-19T09:57:57.808Z,1007.7
2017-10-19T09:59:00.245Z,1007.6
2017-10-19T10:00:03.022Z,1007.6
2017-10-19T10:01:05.471Z,1007.6
2017-10-19T10:02:07.916Z,1007.6
2017-10-19T10:03:10.344Z,1007.6
2017-10-19T10:04:12.781Z,1007.6
2017-10-19T10:05:15.213Z,1007.6
2017-10-19T10:06:17.643Z,1007.6
2017-10-19T10:07:20.097Z,1007.6
2017-10-19T10:08:22.532Z,1007.6
2017-10-19T10:09:24.970Z,1007.5
2017-10-19T10:10:27.417Z,1007.6
2017-10-19T10:11:29.856Z,1007.6
2017-10-19T10:12:32.293Z,1007.5
2017-10-19T10:13:34.742Z,1007.5
2017-10-19T10:14:37.883Z,1007.5
2017-10-19T10:15:40.321Z,1007.5
2017-10-19T10:16:43.128Z,1007.5
2017-10-19T10:17:45.934Z,1007.5
2017-10-19T10:18:48.377Z,1007.5
2017-10-19T10:19:50.816Z,1007.5
2017-10-19T10:20:53.265Z,1007.5
2017-10-19T10:21:55.701Z,1007.4
2017-10-19T10:22:58.146Z,1007.4
2017-10-19T10:24:00.589Z,1007.4
2017-10-19T10:25:03.748Z,1007.4
2017-10-19T10:26:06.196Z,1007.4
2017-10-19T10:27:08.637Z,1007.4
2017-10-19T10:28:11.079Z,1007.5
2017-10-19T10:29:13.888Z,1007.4
2017-10-19T10:30:16.334Z,1007.5
2017-10-19T10:31:18.767Z,1007.4
2017-10-19T10:32:21.216Z,1007.4
2017-10-19T10:33:24.017Z,1007.4
2017-10-19T10:34:26.447Z,1007.4
2017-10-19T10:35:28.890Z,1007.4
2017-10-19T10:36:31.328Z,1007.4
2017-10-19T10:37:33.777Z,1007.4
2017-10-19T10:38:36.227Z,1007.4
2017-10-19T10:39:38.672Z,1007.4
2017-10-19T10:40:41.116Z,1007.4
2017-10-19T10:41:43.931Z,1007.4
2017-10-19T10:42:46.376Z,1007.4
2017-10-19T10:43:48.826Z,1007.4
2017-10-19T10:44:51.627Z,1007.5
2017-10-19T10:45:54.070Z,1007.4
2017-10-19T10:46:56.866Z,1007.4
2017-10-19T10:47:59.309Z,1007.4
2017-10-19T10:49:01.753Z,1007.4
2017-10-19T10:50:04.204Z,1007.5
2017-10-19T10:51:06.644Z,1007.4
2017-10-19T10:52:09.102Z,1007.4
2017-10-19T10:53:11.537Z,1007.4
2017-10-19T10:54:13.978Z,1007.4
2017-10-19T10:55:16.428Z,1007.4
2017-10-19T10:56:18.869Z,1007.4
2017-10-19T10:57:21.317Z,1007.4
2017-10-19T10:58:23.771Z,1007.5
2017-10-19T10:59:26.565Z,1007.5
2017-10-19T11:00:29.004Z,1007.4
2017-10-19T11:01:31.453Z,1007.4
2017-10-19T11:02:33.893Z,1007.5
2017-10-19T11:03:36.331Z,1007.4
2017-10-19T11:04:38.785Z,1007.4
2017-10-19T11:05:41.217Z,1007.4
2017-10-19T11:06:43.680Z,1007.4
2017-10-19T11:07:46.131Z,1007.4
2017-10-19T11:08:48.576Z,1007.5
2017-10-19T11:09:51.027Z,1007.4
2017-10-19T11:10:53.467Z,1007.4
2017-10-19T11:11:55.913Z,1007.4
2017-10-19T11:12:58.361Z,1007.4
2017-10-19T11:14:00.806Z,1007.4
2017-10-19T11:15:03.260Z,1007.5
2017-10-19T11:16:06.045Z,1007.3
2017-10-19T11:17:08.491Z,1007.4
2017-10-19T11:18:10.948Z,1007.3
2017-10-19T11:19:13.395Z,1007.3
2017-10-19T11:20:15.824Z,1007.3
2017-10-19T11:21:18.268Z,1007.3
2017-10-19T11:22:20.710Z,1007.3
2017-10-19T11:23:23.161Z,1007.3
2017-10-19T11:24:25.605Z,1007.3
2017-10-19T11:25:28.037Z,1007.3
2017-10-19T11:26:30.486Z,1007.3
2017-10-19T11:27:32.933Z,1007.3
2017-10-19T11:28:35.376Z,1007.3
2017-10-19T11:29:37.819Z,1007.3
2017-10-19T11:30:40.253Z,1007.3
2017-10-19T11:31:42.694Z,1007.2
2017-10-19T11:32:45.144Z,1007.3
2017-10-19T11:33:47.601Z,1007.3
2017-10-19T11:34:50.030Z,1007.3
2017-10-19T11:35:52.471Z,1007.3
2017-10-19T11:36:54.915Z,1007.3
2017-10-19T11:37:57.370Z,1007.3
2017-10-19T11:38:59.820Z,1007.3
2017-10-19T11:40:02.604Z,1007.3
2017-10-19T11:41:05.060Z,1007.3
2017-10-19T11:42:07.864Z,1007.2
2017-10-19T11:43:10.315Z,1007.3
2017-10-19T11:44:12.766Z,1007.3
2017-10-19T11:45:15.205Z,1007.3
2017-10-19T11:46:18.014Z,1007.3
2017-10-19T11:47:20.453Z,1007.3
2017-10-19T11:48:22.897Z,1007.3
2017-10-19T11:49:25.353Z,1007.3
2017-10-19T11:50:27.799Z,1007.2
2017-10-19T11:51:30.230Z,1007.3
2017-10-19T11:52:33.060Z,1007.3
2017-10-19T11:53:35.498Z,1007.3
2017-10-19T11:54:37.946Z,1007.3
2017-10-19T11:55:40.399Z,1007.2
2017-10-19T11:56:42.831Z,1007.2
2017-10-19T11:57:45.630Z,1007.2
2017-10-19T11:58:48.074Z,1007.2
2017-10-19T11:59:50.515Z,1007.2
2017-10-19T12:00:52.966Z,1007.2
2017-10-19T12:01:55.415Z,1007.2
2017-10-19T12:02:58.214Z,1007.2
2017-10-19T12:04:00.670Z,1007.1
2017-10-19T12:05:03.472Z,1007.1
2017-10-19T12:06:05.913Z,1007.1
2017-10-19T12:07:08.711Z,1007
2017-10-19T12:08:11.149Z,1007
2017-10-19T12:09:13.590Z,1007
2017-10-19T12:10:16.026Z,1007
2017-10-19T12:11:18.477Z,1007
2017-10-19T12:12:20.938Z,1007
2017-10-19T12:13:23.370Z,1007
2017-10-19T12:14:25.834Z,1007
2017-10-19T12:15:28.272Z,1007
2017-10-19T12:16:30.717Z,1007
2017-10-19T12:17:33.153Z,1006.9
2017-10-19T12:18:35.596Z,1006.9
2017-10-19T12:19:38.040Z,1006.9
2017-10-19T12:20:40.489Z,1006.9
2017-10-19T12:21:42.937Z,1006.9
2017-10-19T12:22:45.379Z,1006.9
2017-10-19T12:23:47.820Z,1006.9
2017-10-19T12:24:50.278Z,1006.8
2017-10-19T12:25:53.090Z,1006.8
2017-10-19T12:26:55.537Z,1006.9
2017-10-19T12:27:57.981Z,1006.9
2017-10-19T12:29:00.432Z,1006.9
2017-10-19T12:30:02.893Z,1006.8
2017-10-19T12:31:05.338Z,1006.8
2017-10-19T12:32:07.780Z,1006.8
2017-10-19T12:33:10.956Z,1006.8
2017-10-19T12:34:13.405Z,1006.8
2017-10-19T12:35:15.856Z,1006.8
2017-10-19T12:36:19.037Z,1006.8
2017-10-19T12:37:21.480Z,1006.8
2017-10-19T12:38:23.921Z,1006.8
2017-10-19T12:39:26.372Z,1006.8
2017-10-19T12:40:29.188Z,1006.8
2017-10-19T12:41:31.629Z,1006.8
2017-10-19T12:42:34.075Z,1006.8
2017-10-19T12:43:36.532Z,1006.7
2017-10-19T12:44:38.975Z,1006.7
2017-10-19T12:45:41.417Z,1006.7
2017-10-19T12:46:43.873Z,1006.7
2017-10-19T12:47:46.302Z,1006.7
2017-10-19T12:48:48.765Z,1006.7
2017-10-19T12:49:51.211Z,1006.6
2017-10-19T12:50:53.657Z,1006.6
2017-10-19T12:51:56.496Z,1006.7
2017-10-19T12:52:58.943Z,1006.6
2017-10-19T12:54:01.391Z,1006.6
2017-10-19T12:55:03.849Z,1006.6
2017-10-19T12:56:06.290Z,1006.5
2017-10-19T12:57:09.101Z,1006.5
2017-10-19T12:58:11.546Z,1006.5
2017-10-19T12:59:13.993Z,1006.5
2017-10-19T13:00:16.441Z,1006.6
2017-10-19T13:01:19.246Z,1006.6
2017-10-19T13:02:21.681Z,1006.6
2017-10-19T13:03:24.163Z,1006.6